Susquehanna — WDD9976 — position and weather

sailwx.info

Track history (hours):
 
Tides and Currents Weather Stations Pressure Air Temp Water Temp Dewpoint Dewpoint Depression Visibility Wind Speed Wind Dir Waves Ship Positions

Susquehanna

Owner: Vane Line Bunkering, Inc., Baltimore, MD. More information available from US FCC via Universal Licensing System and Coast Guard Vessel Documentation Center.

Last reported at 2016-Sep-28 19:33 UTC. Time now 2016-Sep-28 20:33 UTC.
Position N 39°54' W 075°12'.

Length 28 m; draft 4.2 m.

Type: Tug. MMSI: 367318750.

Date/timePositionNaut miles runAvg speedWind from/ knotsBaromVisibWave heightAir tempDewpointWater temp
2016-Sep-28 19:33N 39°54' W 075°12'0 0.0
2016-Sep-28 16:32N 39°54' W 075°12'0 0.0
2016-Sep-28 15:33N 39°54' W 075°12'0 0.0
2016-Sep-28 12:32N 39°54' W 075°12'0 0.0
2016-Sep-28 08:31N 39°54' W 075°12'0 0.0
2016-Sep-28 03:32N 39°54' W 075°12'0 0.0
2016-Sep-28 02:32N 39°54' W 075°12'0 0.0
2016-Sep-28 01:33N 39°54' W 075°12'13 6.3
2016-Sep-27 23:33N 39°47' W 075°27'34 8.5
2016-Sep-27 19:33N 39°14' W 075°18'32 6.3
2016-Sep-27 14:28N 38°58' W 074°42'108 7.8
2016-Sep-27 00:33N 40°42' W 074°00'7 0.3
2016-Sep-25 21:33N 40°48' W 073°55'19 4.7
2016-Sep-25 17:33N 40°29' W 073°54'6 5.7
2016-Sep-25 16:33N 40°23' W 073°54'30 5.6
2016-Sep-25 11:15N 39°53' W 073°57'4 5.3
2016-Sep-25 10:33N 39°50' W 073°57'6 5.6
2016-Sep-25 09:33N 39°44' W 073°57'14 7.1
2016-Sep-25 07:33N 39°32' W 074°06'58 4.8
2016-Sep-24 19:31N 39°11' W 075°17'7 7.4
2016-Sep-24 18:33N 39°17' W 075°22'8 8.0
2016-Sep-24 17:33N 39°23' W 075°29'8 8.0
2016-Sep-24 16:33N 39°30' W 075°33'14 6.9
2016-Sep-24 14:33N 39°32' W 075°51'15 7.3
2016-Sep-24 12:33N 39°23' W 076°06'14 6.7
2016-Sep-24 10:33N 39°12' W 076°16'14 2.0
2016-Sep-24 03:30N 39°16' W 076°33'0 0.0
2016-Sep-24 02:21N 39°16' W 076°33'0 0.0
2016-Sep-24 01:33N 39°16' W 076°33'0 0.0
2016-Sep-24 00:30N 39°16' W 076°33'1 0.2
2016-Sep-23 17:30N 39°15' W 076°34'0 0.0
2016-Sep-23 16:20N 39°15' W 076°34'0 0.0
2016-Sep-23 15:22N 39°15' W 076°34'0 0.0
2016-Sep-23 13:30N 39°15' W 076°34'0 0.0
2016-Sep-23 09:33N 39°15' W 076°34'0 0.0
2016-Sep-23 06:30N 39°15' W 076°34'0 0.0
2016-Sep-23 04:30N 39°15' W 076°34'0 0.0
2016-Sep-23 03:20N 39°15' W 076°34'0 0.0
2016-Sep-23 01:30N 39°15' W 076°34'0 0.0
2016-Sep-23 00:30N 39°15' W 076°34'0 0.0
2016-Sep-22 23:20N 39°15' W 076°34'0 0.0
2016-Sep-22 20:30N 39°15' W 076°34'1 0.1
2016-Sep-22 04:32N 39°16' W 076°33'0 0.0
2016-Sep-22 03:26N 39°16' W 076°33'0 0.0
2016-Sep-22 00:20N 39°16' W 076°33'0 0.0
2016-Sep-21 23:32N 39°16' W 076°33'0 0.0
2016-Sep-21 22:33N 39°16' W 076°33'0 0.1
2016-Sep-21 19:30N 39°15' W 076°33'0 0.0
2016-Sep-21 16:32N 39°15' W 076°33'0 0.0
2016-Sep-21 09:30N 39°16' W 076°33'0 0.0
2016-Sep-21 08:33N 39°16' W 076°33'76 4.2
2016-Sep-20 14:30N 38°01' W 076°14'68 8.1
2016-Sep-20 06:11N 36°55' W 075°57'  
Track history (hours):
 
Tides and Currents Weather Stations Pressure Air Temp Water Temp Dewpoint Dewpoint Depression Visibility Wind Speed Wind Dir Waves Ship Positions

Susquehanna

Owner: Vane Line Bunkering, Inc., Baltimore, MD. More information available from US FCC via Universal Licensing System and Coast Guard Vessel Documentation Center.

Last reported at 2016-Sep-28 19:33 UTC. Time now 2016-Sep-28 20:33 UTC.
Position N 39°54' W 075°12'.

Length 28 m; draft 4.2 m.

Type: Tug. MMSI: 367318750.

Date/timePositionNaut miles runAvg speedWind from/ knotsBaromVisibWave heightAir tempDewpointWater temp
2016-Sep-28 19:33N 39°54' W 075°12'0 0.0
2016-Sep-28 16:32N 39°54' W 075°12'0 0.0
2016-Sep-28 15:33N 39°54' W 075°12'0 0.0
2016-Sep-28 12:32N 39°54' W 075°12'0 0.0
2016-Sep-28 08:31N 39°54' W 075°12'0 0.0
2016-Sep-28 03:32N 39°54' W 075°12'0 0.0
2016-Sep-28 02:32N 39°54' W 075°12'0 0.0
2016-Sep-28 01:33N 39°54' W 075°12'13 6.3
2016-Sep-27 23:33N 39°47' W 075°27'34 8.5
2016-Sep-27 19:33N 39°14' W 075°18'32 6.3
2016-Sep-27 14:28N 38°58' W 074°42'108 7.8
2016-Sep-27 00:33N 40°42' W 074°00'7 0.3
2016-Sep-25 21:33N 40°48' W 073°55'19 4.7
2016-Sep-25 17:33N 40°29' W 073°54'6 5.7
2016-Sep-25 16:33N 40°23' W 073°54'30 5.6
2016-Sep-25 11:15N 39°53' W 073°57'4 5.3
2016-Sep-25 10:33N 39°50' W 073°57'6 5.6
2016-Sep-25 09:33N 39°44' W 073°57'14 7.1
2016-Sep-25 07:33N 39°32' W 074°06'58 4.8
2016-Sep-24 19:31N 39°11' W 075°17'7 7.4
2016-Sep-24 18:33N 39°17' W 075°22'8 8.0
2016-Sep-24 17:33N 39°23' W 075°29'8 8.0
2016-Sep-24 16:33N 39°30' W 075°33'14 6.9
2016-Sep-24 14:33N 39°32' W 075°51'15 7.3
2016-Sep-24 12:33N 39°23' W 076°06'14 6.7
2016-Sep-24 10:33N 39°12' W 076°16'14 2.0
2016-Sep-24 03:30N 39°16' W 076°33'0 0.0
2016-Sep-24 02:21N 39°16' W 076°33'0 0.0
2016-Sep-24 01:33N 39°16' W 076°33'0 0.0
2016-Sep-24 00:30N 39°16' W 076°33'1 0.2
2016-Sep-23 17:30N 39°15' W 076°34'0 0.0
2016-Sep-23 16:20N 39°15' W 076°34'0 0.0
2016-Sep-23 15:22N 39°15' W 076°34'0 0.0
2016-Sep-23 13:30N 39°15' W 076°34'0 0.0
2016-Sep-23 09:33N 39°15' W 076°34'0 0.0
2016-Sep-23 06:30N 39°15' W 076°34'0 0.0
2016-Sep-23 04:30N 39°15' W 076°34'0 0.0
2016-Sep-23 03:20N 39°15' W 076°34'0 0.0
2016-Sep-23 01:30N 39°15' W 076°34'0 0.0
2016-Sep-23 00:30N 39°15' W 076°34'0 0.0
2016-Sep-22 23:20N 39°15' W 076°34'0 0.0
2016-Sep-22 20:30N 39°15' W 076°34'1 0.1
2016-Sep-22 04:32N 39°16' W 076°33'0 0.0
2016-Sep-22 03:26N 39°16' W 076°33'0 0.0
2016-Sep-22 00:20N 39°16' W 076°33'0 0.0
2016-Sep-21 23:32N 39°16' W 076°33'0 0.0
2016-Sep-21 22:33N 39°16' W 076°33'0 0.1
2016-Sep-21 19:30N 39°15' W 076°33'0 0.0
2016-Sep-21 16:32N 39°15' W 076°33'0 0.0
2016-Sep-21 09:30N 39°16' W 076°33'0 0.0
2016-Sep-21 08:33N 39°16' W 076°33'76 4.2
2016-Sep-20 14:30N 38°01' W 076°14'68 8.1
2016-Sep-20 06:11N 36°55' W 075°57'  

Dump ship's entire track history